createdAt,value
2017-09-15T00:00:11.879Z,79.96
2017-09-15T00:02:40.892Z,80.38
2017-09-15T00:05:09.177Z,80.34
2017-09-15T00:07:37.413Z,80.25
2017-09-15T00:10:06.427Z,80.72
2017-09-15T00:12:34.706Z,80.78
2017-09-15T00:15:02.951Z,80.58
2017-09-15T00:17:31.962Z,80.00
2017-09-15T00:20:00.220Z,79.88
2017-09-15T00:22:28.457Z,80.10
2017-09-15T00:24:56.714Z,80.08
2017-09-15T00:27:24.947Z,79.79
2017-09-15T00:29:53.958Z,79.38
2017-09-15T00:32:22.214Z,79.39
2017-09-15T00:34:51.243Z,79.29
2017-09-15T00:37:19.497Z,78.87
2017-09-15T00:39:48.509Z,79.01
2017-09-15T00:42:16.763Z,79.11
2017-09-15T00:44:45.771Z,79.42
2017-09-15T00:47:14.020Z,79.27
2017-09-15T00:49:42.267Z,79.42
2017-09-15T00:52:10.522Z,79.12
2017-09-15T00:54:38.774Z,78.61
2017-09-15T00:57:07.020Z,78.91
2017-09-15T00:59:36.040Z,78.97
2017-09-15T01:02:04.283Z,78.27
2017-09-15T01:04:32.536Z,79.04
2017-09-15T01:07:00.777Z,78.68
2017-09-15T01:09:29.031Z,78.06
2017-09-15T01:11:58.034Z,78.61
2017-09-15T01:14:26.281Z,78.63
2017-09-15T01:16:55.296Z,78.74
2017-09-15T01:19:24.314Z,78.87
2017-09-15T01:21:52.554Z,78.55
2017-09-15T01:24:21.565Z,78.88
2017-09-15T01:26:49.819Z,78.79
2017-09-15T01:29:18.838Z,79.04
2017-09-15T01:31:47.084Z,79.24
2017-09-15T01:34:16.095Z,79.12
2017-09-15T01:36:44.340Z,79.09
2017-09-15T01:39:12.590Z,79.58
2017-09-15T01:41:40.835Z,79.17
2017-09-15T01:44:09.081Z,79.51
2017-09-15T01:46:38.090Z,79.39
2017-09-15T01:49:07.100Z,79.25
2017-09-15T01:51:35.345Z,79.02
2017-09-15T01:54:04.355Z,79.23
2017-09-15T01:56:32.598Z,79.00
2017-09-15T01:59:00.852Z,79.04
2017-09-15T02:01:29.099Z,79.12
2017-09-15T02:03:57.352Z,79.10
2017-09-15T02:06:26.347Z,79.13
2017-09-15T02:08:54.604Z,79.48
2017-09-15T02:11:23.607Z,79.41
2017-09-15T02:13:51.859Z,79.54
2017-09-15T02:16:20.176Z,79.46
2017-09-15T02:18:48.418Z,79.60
2017-09-15T02:21:17.447Z,80.10
2017-09-15T02:23:45.690Z,80.17
2017-09-15T02:26:14.717Z,80.14
2017-09-15T02:28:42.955Z,79.93
2017-09-15T02:31:11.971Z,80.17
2017-09-15T02:33:40.216Z,80.18
2017-09-15T02:36:08.464Z,80.45
2017-09-15T02:38:36.707Z,80.29
2017-09-15T02:41:04.964Z,80.22
2017-09-15T02:43:33.975Z,80.43
2017-09-15T02:46:02.225Z,80.14
2017-09-15T02:48:31.232Z,80.17
2017-09-15T02:50:59.478Z,80.38
2017-09-15T02:53:29.199Z,80.10
2017-09-15T02:55:58.216Z,80.23
2017-09-15T02:58:26.449Z,79.82
2017-09-15T03:00:54.702Z,79.71
2017-09-15T03:03:22.953Z,79.74
2017-09-15T03:05:51.198Z,79.58
2017-09-15T03:08:20.219Z,79.27
2017-09-15T03:10:48.468Z,79.42
2017-09-15T03:13:17.484Z,79.15
2017-09-15T03:15:45.734Z,79.24
2017-09-15T03:18:14.744Z,79.27
2017-09-15T03:20:42.999Z,79.47
2017-09-15T03:23:12.013Z,79.49
2017-09-15T03:25:40.263Z,79.52
2017-09-15T03:28:09.275Z,79.59
2017-09-15T03:30:37.526Z,79.85
2017-09-15T03:33:05.775Z,79.78
2017-09-15T03:35:34.023Z,79.71
2017-09-15T03:38:02.265Z,79.86
2017-09-15T03:40:31.290Z,79.99
2017-09-15T03:42:59.528Z,79.77
2017-09-15T03:45:28.541Z,79.58
2017-09-15T03:47:57.548Z,79.92
2017-09-15T03:50:25.799Z,79.86
2017-09-15T03:52:54.808Z,79.94
2017-09-15T03:55:23.055Z,80.01
2017-09-15T03:57:52.065Z,80.12
2017-09-15T04:00:20.308Z,80.33
2017-09-15T04:02:48.551Z,80.53
2017-09-15T04:05:16.788Z,80.94
2017-09-15T04:07:45.806Z,80.82
2017-09-15T04:10:14.055Z,81.24
2017-09-15T04:12:43.074Z,81.15
2017-09-15T04:15:11.328Z,81.46
2017-09-15T04:17:40.343Z,81.16
2017-09-15T04:20:08.591Z,81.72
2017-09-15T04:22:37.612Z,81.88
2017-09-15T04:25:05.856Z,82.06
2017-09-15T04:27:34.864Z,81.57
2017-09-15T04:30:03.112Z,81.52
2017-09-15T04:32:32.110Z,81.31
2017-09-15T04:35:01.124Z,81.40
2017-09-15T04:37:29.395Z,81.36
2017-09-15T04:39:58.398Z,81.50
2017-09-15T04:42:26.645Z,81.38
2017-09-15T04:44:55.777Z,81.31
2017-09-15T04:47:24.019Z,81.32
2017-09-15T04:49:53.030Z,81.31
2017-09-15T04:52:21.288Z,81.22
2017-09-15T04:54:50.309Z,81.22
2017-09-15T04:59:46.860Z,81.32
2017-09-15T05:02:15.117Z,81.47
2017-09-15T05:04:44.118Z,81.33
2017-09-15T05:07:12.376Z,81.37
2017-09-15T05:09:41.383Z,81.28
2017-09-15T05:12:09.643Z,81.60
2017-09-15T05:14:38.662Z,81.36
2017-09-15T05:17:06.917Z,81.34
2017-09-15T05:19:35.920Z,81.13
2017-09-15T05:22:04.171Z,81.04
2017-09-15T05:24:32.411Z,81.09
2017-09-15T05:27:00.676Z,81.14
2017-09-15T05:29:28.920Z,81.30
2017-09-15T05:31:57.162Z,81.14
2017-09-15T05:34:25.417Z,81.20
2017-09-15T05:36:53.655Z,80.98
2017-09-15T05:39:21.897Z,80.98
2017-09-15T05:41:50.139Z,80.97
2017-09-15T05:44:18.395Z,81.28
2017-09-15T05:46:46.645Z,81.14
2017-09-15T05:49:15.656Z,81.11
2017-09-15T05:51:43.899Z,81.11
2017-09-15T05:54:12.920Z,81.19
2017-09-15T05:56:41.164Z,81.24
2017-09-15T05:59:10.184Z,81.17
2017-09-15T06:01:38.434Z,81.19
2017-09-15T06:04:07.448Z,80.99
2017-09-15T06:06:35.699Z,80.71
2017-09-15T06:09:04.736Z,80.47
2017-09-15T06:11:32.982Z,80.11
2017-09-15T06:14:02.001Z,79.86
2017-09-15T06:16:30.239Z,79.48
2017-09-15T06:18:59.243Z,79.29
2017-09-15T06:21:28.260Z,78.97
2017-09-15T06:23:56.503Z,78.92
2017-09-15T06:26:25.515Z,78.31
2017-09-15T06:28:53.755Z,77.90
2017-09-15T06:31:22.007Z,77.89
2017-09-15T06:33:50.256Z,78.13
2017-09-15T06:36:18.498Z,77.21
2017-09-15T06:38:47.520Z,77.12
2017-09-15T06:41:15.763Z,77.04
2017-09-15T06:43:44.775Z,76.69
2017-09-15T06:46:13.022Z,76.09
2017-09-15T06:48:41.279Z,75.80
2017-09-15T06:51:09.605Z,75.81
2017-09-15T06:53:37.863Z,75.55
2017-09-15T06:56:06.876Z,75.55
2017-09-15T06:58:35.126Z,75.28
2017-09-15T07:01:04.142Z,74.54
2017-09-15T07:03:32.394Z,74.09
2017-09-15T07:06:01.417Z,73.97
2017-09-15T07:08:29.671Z,73.84
2017-09-15T07:10:58.691Z,73.42
2017-09-15T07:13:27.173Z,73.15
2017-09-15T07:15:55.419Z,72.66
2017-09-15T07:18:24.440Z,72.74
2017-09-15T07:20:52.699Z,72.96
2017-09-15T07:23:20.951Z,72.97
2017-09-15T07:25:49.989Z,72.43
2017-09-15T07:28:18.236Z,71.38
2017-09-15T07:30:47.255Z,70.92
2017-09-15T07:33:15.508Z,71.00
2017-09-15T07:35:44.532Z,70.10
2017-09-15T07:38:12.782Z,70.25
2017-09-15T07:40:41.030Z,69.67
2017-09-15T07:43:10.066Z,69.06
2017-09-15T07:45:38.318Z,69.52
2017-09-15T07:48:06.583Z,69.37
2017-09-15T07:50:35.633Z,68.90
2017-09-15T07:53:03.863Z,68.65
2017-09-15T07:55:32.879Z,68.28
2017-09-15T07:58:01.146Z,67.98
2017-09-15T08:00:29.393Z,67.81
2017-09-15T08:02:58.409Z,68.50
2017-09-15T08:05:26.687Z,69.00
2017-09-15T08:07:54.934Z,67.60
2017-09-15T08:10:23.186Z,67.74
2017-09-15T08:12:51.438Z,68.33
2017-09-15T08:15:19.694Z,68.69
2017-09-15T08:17:47.950Z,68.66
2017-09-15T08:20:16.974Z,68.54
2017-09-15T08:22:45.227Z,68.41
2017-09-15T08:25:13.483Z,67.28
2017-09-15T08:27:42.499Z,66.93
2017-09-15T08:30:10.760Z,67.81
2017-09-15T08:32:39.779Z,67.95
2017-09-15T08:35:08.045Z,67.22
2017-09-15T08:37:36.299Z,68.11
2017-09-15T08:40:05.315Z,67.81
2017-09-15T08:42:33.575Z,66.91
2017-09-15T08:45:02.593Z,67.43
2017-09-15T08:47:30.842Z,66.40
2017-09-15T08:49:59.864Z,67.10
2017-09-15T08:52:28.121Z,66.61
2017-09-15T08:54:56.371Z,67.51
2017-09-15T08:57:24.623Z,67.45
2017-09-15T08:59:52.874Z,66.38
2017-09-15T09:02:21.122Z,66.79
2017-09-15T09:04:49.374Z,66.11
2017-09-15T09:07:17.621Z,65.11
2017-09-15T09:09:45.892Z,65.99
2017-09-15T09:12:14.146Z,65.69
2017-09-15T09:14:42.399Z,65.42
2017-09-15T09:17:10.660Z,64.42
2017-09-15T09:19:39.667Z,64.43
2017-09-15T09:22:07.926Z,64.39
2017-09-15T09:24:36.941Z,63.34
2017-09-15T09:27:05.195Z,63.88
2017-09-15T09:29:34.218Z,63.98
2017-09-15T09:32:02.470Z,61.83
2017-09-15T09:34:31.486Z,61.89
2017-09-15T09:36:59.738Z,62.50
2017-09-15T09:39:28.752Z,63.13
2017-09-15T09:41:57.017Z,61.78
2017-09-15T09:44:26.019Z,59.81
2017-09-15T09:46:54.266Z,59.67
2017-09-15T09:49:23.283Z,59.16
2017-09-15T09:51:51.531Z,58.55
2017-09-15T09:54:20.543Z,59.53
2017-09-15T09:56:49.558Z,58.05
2017-09-15T09:59:17.815Z,58.38
2017-09-15T10:01:46.831Z,58.07
2017-09-15T10:04:15.076Z,60.35
2017-09-15T10:06:44.108Z,60.94
2017-09-15T10:09:12.361Z,61.30
2017-09-15T10:11:40.612Z,57.78
2017-09-15T10:14:09.623Z,59.78
2017-09-15T10:16:37.879Z,58.06
2017-09-15T10:19:06.892Z,58.73
2017-09-15T10:21:35.147Z,59.16
2017-09-15T10:24:04.163Z,57.61
2017-09-15T10:26:32.403Z,57.43
2017-09-15T10:29:00.645Z,58.47
2017-09-15T10:31:28.904Z,58.65
2017-09-15T10:33:57.151Z,56.71
2017-09-15T10:36:26.167Z,56.65
2017-09-15T10:38:54.418Z,56.87
2017-09-15T10:41:23.441Z,56.53
2017-09-15T10:43:51.692Z,55.98
2017-09-15T10:46:20.711Z,56.25
2017-09-15T10:48:48.954Z,55.73
2017-09-15T10:51:17.979Z,55.76
2017-09-15T10:53:46.222Z,55.12
2017-09-15T10:56:15.244Z,54.47
2017-09-15T10:58:48.943Z,53.65
2017-09-15T11:01:17.208Z,53.63
2017-09-15T11:03:45.449Z,52.68
2017-09-15T11:06:13.705Z,56.22
2017-09-15T11:08:41.947Z,55.17
2017-09-15T11:11:10.199Z,55.78
2017-09-15T11:13:39.223Z,56.83
2017-09-15T11:16:07.484Z,57.23
2017-09-15T11:18:35.730Z,57.75
2017-09-15T11:21:04.751Z,56.72
2017-09-15T11:23:33.002Z,57.09
2017-09-15T11:26:02.012Z,57.90
2017-09-15T11:28:30.272Z,57.21
2017-09-15T11:30:59.290Z,57.74
2017-09-15T11:33:27.547Z,58.23
2017-09-15T11:35:56.563Z,58.08
2017-09-15T11:38:24.827Z,56.30
2017-09-15T11:40:53.067Z,56.68
2017-09-15T11:43:21.324Z,57.07
2017-09-15T11:45:49.565Z,56.62
2017-09-15T11:48:17.829Z,56.77
2017-09-15T11:50:46.077Z,57.30
2017-09-15T11:53:14.332Z,56.54
2017-09-15T11:55:42.576Z,55.78
2017-09-15T11:58:10.831Z,54.83
2017-09-15T12:00:39.075Z,52.01
2017-09-15T12:03:07.328Z,47.45
2017-09-15T12:05:35.575Z,50.54
2017-09-15T12:08:03.823Z,44.82
2017-09-15T12:10:32.072Z,49.98
2017-09-15T12:13:00.326Z,52.82
2017-09-15T12:15:28.580Z,55.16
2017-09-15T12:17:56.836Z,54.84
2017-09-15T12:20:25.079Z,55.37
2017-09-15T12:22:54.103Z,55.41
2017-09-15T12:25:22.352Z,54.49
2017-09-15T12:27:51.365Z,50.16
2017-09-15T12:30:19.606Z,48.54
2017-09-15T12:32:47.858Z,47.41
2017-09-15T12:35:16.098Z,46.37
2017-09-15T12:37:44.351Z,48.23
2017-09-15T12:40:13.366Z,46.90
2017-09-15T12:42:41.625Z,45.32
2017-09-15T12:45:10.645Z,44.91
2017-09-15T12:47:38.893Z,43.26
2017-09-15T12:50:07.911Z,43.44
2017-09-15T12:52:36.165Z,44.49
2017-09-15T12:55:05.169Z,41.41
2017-09-15T12:57:33.428Z,40.04
2017-09-15T13:00:01.670Z,41.96
2017-09-15T13:02:29.923Z,40.51
2017-09-15T13:04:58.175Z,39.28
2017-09-15T13:07:26.427Z,40.56
2017-09-15T13:09:54.672Z,40.82
2017-09-15T13:12:22.927Z,41.55
2017-09-15T13:14:51.180Z,40.92
2017-09-15T13:17:19.444Z,43.49
2017-09-15T13:19:47.808Z,45.35
2017-09-15T13:22:16.163Z,45.58
2017-09-15T13:24:45.271Z,46.89
2017-09-15T13:27:14.371Z,45.30
2017-09-15T13:29:42.662Z,41.40
2017-09-15T13:32:11.042Z,43.39
2017-09-15T13:34:39.353Z,42.88
2017-09-15T13:37:07.785Z,46.58
2017-09-15T13:39:36.104Z,47.20
2017-09-15T13:42:04.458Z,48.26
2017-09-15T13:44:32.775Z,48.46
2017-09-15T13:47:01.084Z,47.42
2017-09-15T13:49:30.257Z,47.98
2017-09-15T13:51:59.357Z,44.25
2017-09-15T13:54:27.687Z,45.90
2017-09-15T13:56:56.018Z,42.20
2017-09-15T13:59:25.162Z,40.86
2017-09-15T14:01:53.567Z,39.45
2017-09-15T14:04:21.937Z,40.63
2017-09-15T14:06:50.280Z,43.14
2017-09-15T14:09:18.640Z,46.11
2017-09-15T14:11:46.959Z,41.38
2017-09-15T14:14:15.295Z,41.56
2017-09-15T14:16:43.603Z,39.71
2017-09-15T14:19:11.926Z,39.56
2017-09-15T14:21:41.006Z,40.54
2017-09-15T14:24:09.302Z,41.34
2017-09-15T14:26:38.389Z,43.57
2017-09-15T14:29:07.464Z,45.11
2017-09-15T14:31:35.775Z,43.70
2017-09-15T14:34:04.895Z,45.97
2017-09-15T14:36:33.229Z,45.77
2017-09-15T14:39:01.590Z,45.82
2017-09-15T14:41:29.863Z,43.60
2017-09-15T14:43:58.129Z,42.43
2017-09-15T14:46:26.417Z,46.11
2017-09-15T14:48:54.744Z,46.01
2017-09-15T14:51:23.054Z,42.04
2017-09-15T14:53:51.290Z,39.73
2017-09-15T14:56:19.561Z,44.02
2017-09-15T14:58:48.571Z,46.80
2017-09-15T15:01:16.817Z,45.64
2017-09-15T15:03:45.091Z,46.30
2017-09-15T15:06:13.330Z,47.22
2017-09-15T15:08:41.583Z,47.91
2017-09-15T15:11:09.827Z,48.23
2017-09-15T15:13:38.851Z,47.38
2017-09-15T15:16:07.095Z,45.60
2017-09-15T15:18:36.116Z,47.20
2017-09-15T15:21:04.372Z,48.08
2017-09-15T15:23:32.630Z,47.95
2017-09-15T15:26:01.642Z,54.47
2017-09-15T15:28:29.903Z,56.19
2017-09-15T15:30:58.916Z,60.61
2017-09-15T15:33:27.412Z,61.38
2017-09-15T15:35:55.666Z,62.29
2017-09-15T15:38:23.931Z,62.48
2017-09-15T15:40:52.201Z,62.31
2017-09-15T15:43:21.212Z,62.85
2017-09-15T15:45:49.487Z,64.04
2017-09-15T15:48:17.739Z,64.87
2017-09-15T15:50:46.767Z,64.65
2017-09-15T15:53:15.019Z,64.87
2017-09-15T15:55:44.052Z,64.85
2017-09-15T15:58:12.304Z,64.31
2017-09-15T16:00:40.564Z,64.74
2017-09-15T16:03:09.578Z,63.69
2017-09-15T16:05:37.821Z,63.31
2017-09-15T16:08:06.852Z,63.21
2017-09-15T16:10:35.116Z,57.69
2017-09-15T16:13:04.124Z,61.26
2017-09-15T16:15:32.374Z,62.37
2017-09-15T16:18:01.396Z,62.88
2017-09-15T16:20:29.650Z,63.25
2017-09-15T16:22:57.951Z,59.22
2017-09-15T16:25:26.204Z,61.65
2017-09-15T16:27:54.463Z,62.89
2017-09-15T16:30:22.723Z,63.50
2017-09-15T16:32:50.963Z,63.46
2017-09-15T16:35:19.233Z,62.93
2017-09-15T16:37:46.850Z,63.53
2017-09-15T16:40:21.322Z,62.92
2017-09-15T16:42:54.986Z,62.65
2017-09-15T16:45:28.709Z,62.76
2017-09-15T16:48:02.343Z,65.36
2017-09-15T16:50:30.598Z,65.88
2017-09-15T16:52:58.856Z,65.60
2017-09-15T16:55:27.121Z,65.79
2017-09-15T16:57:55.383Z,66.03
2017-09-15T17:00:24.417Z,64.89
2017-09-15T17:02:52.671Z,65.44
2017-09-15T17:05:20.933Z,64.73
2017-09-15T17:07:49.945Z,66.64
2017-09-15T17:10:18.207Z,64.54
2017-09-15T17:12:46.458Z,65.39
2017-09-15T17:15:15.478Z,65.44
2017-09-15T17:17:43.734Z,65.93
2017-09-15T17:20:12.761Z,65.84
2017-09-15T17:22:40.998Z,65.20
2017-09-15T17:25:10.034Z,64.91
2017-09-15T17:27:38.308Z,64.13
2017-09-15T17:30:06.551Z,65.15
2017-09-15T17:32:35.588Z,67.10
2017-09-15T17:35:03.831Z,65.50
2017-09-15T17:37:32.092Z,66.00
2017-09-15T17:40:01.111Z,67.53
2017-09-15T17:42:29.367Z,66.33
2017-09-15T17:44:58.381Z,65.56
2017-09-15T17:47:26.640Z,65.95
2017-09-15T17:49:54.900Z,66.68
2017-09-15T17:52:23.919Z,68.10
2017-09-15T17:54:52.167Z,67.84
2017-09-15T17:57:21.193Z,67.01
2017-09-15T17:59:49.440Z,65.72
2017-09-15T18:02:18.487Z,65.32
2017-09-15T18:04:46.737Z,65.55
2017-09-15T18:07:14.988Z,67.22
2017-09-15T18:09:44.823Z,67.52
2017-09-15T18:12:13.069Z,67.64
2017-09-15T18:14:42.094Z,66.06
2017-09-15T18:17:10.342Z,65.67
2017-09-15T18:19:39.366Z,65.71
2017-09-15T18:22:07.605Z,69.10
2017-09-15T18:24:36.632Z,69.90
2017-09-15T18:27:04.889Z,70.27
2017-09-15T18:29:33.142Z,71.05
2017-09-15T18:32:01.401Z,70.26
2017-09-15T18:34:29.659Z,69.61
2017-09-15T18:36:57.910Z,69.70
2017-09-15T18:39:26.172Z,71.16
2017-09-15T18:41:54.426Z,71.97
2017-09-15T18:44:23.436Z,72.15
2017-09-15T18:46:51.712Z,72.43
2017-09-15T18:49:19.959Z,72.56
2017-09-15T18:51:48.214Z,73.18
2017-09-15T18:54:16.461Z,73.34
2017-09-15T18:56:44.708Z,73.75
2017-09-15T18:59:13.764Z,73.50
2017-09-15T19:01:42.006Z,73.34
2017-09-15T19:04:10.250Z,74.18
2017-09-15T19:06:39.314Z,73.43
2017-09-15T19:09:07.551Z,73.16
2017-09-15T19:11:35.789Z,73.19
2017-09-15T19:14:04.842Z,73.67
2017-09-15T19:16:33.096Z,73.75
2017-09-15T19:19:01.339Z,73.56
2017-09-15T19:21:30.358Z,73.75
2017-09-15T19:23:58.612Z,74.26
2017-09-15T19:26:26.855Z,73.92
2017-09-15T19:28:55.104Z,74.73
2017-09-15T19:31:23.390Z,74.91
2017-09-15T19:33:51.636Z,75.45
2017-09-15T19:36:19.881Z,74.91
2017-09-15T19:38:48.900Z,75.16
2017-09-15T19:41:17.136Z,75.40
2017-09-15T19:43:45.385Z,75.60
2017-09-15T19:46:13.622Z,75.48
2017-09-15T19:48:41.880Z,75.28
2017-09-15T19:51:10.879Z,75.73
2017-09-15T19:53:39.144Z,75.89
2017-09-15T19:56:08.195Z,75.75
2017-09-15T19:58:36.469Z,75.92
2017-09-15T20:01:04.749Z,76.15
2017-09-15T20:03:32.979Z,76.23
2017-09-15T20:06:01.218Z,76.23
2017-09-15T20:08:29.508Z,76.04
2017-09-15T20:10:57.738Z,75.88
2017-09-15T20:13:26.747Z,75.94
2017-09-15T20:15:55.007Z,76.15
2017-09-15T20:18:23.255Z,76.24
2017-09-15T20:20:51.524Z,76.87
2017-09-15T20:23:19.771Z,77.71
2017-09-15T20:25:48.786Z,77.98
2017-09-15T20:28:17.039Z,78.06
2017-09-15T20:30:46.051Z,78.02
2017-09-15T20:33:14.305Z,78.36
2017-09-15T20:35:42.548Z,78.42
2017-09-15T20:38:10.800Z,78.20
2017-09-15T20:40:39.035Z,78.19
2017-09-15T20:43:08.052Z,78.99
2017-09-15T20:45:36.299Z,79.27
2017-09-15T20:48:04.577Z,78.54
2017-09-15T20:50:32.876Z,78.02
2017-09-15T20:53:01.879Z,78.23
2017-09-15T20:55:30.131Z,77.30
2017-09-15T20:57:59.172Z,77.89
2017-09-15T21:00:27.420Z,78.34
2017-09-15T21:02:55.666Z,78.64
2017-09-15T21:05:24.696Z,78.45
2017-09-15T21:07:52.935Z,78.38
2017-09-15T21:10:21.979Z,78.41
2017-09-15T21:12:50.218Z,78.88
2017-09-15T21:15:19.280Z,79.54
2017-09-15T21:17:47.515Z,78.88
2017-09-15T21:20:15.766Z,78.66
2017-09-15T21:22:44.052Z,77.98
2017-09-15T21:25:12.296Z,77.71
2017-09-15T21:27:41.418Z,76.64
2017-09-15T21:30:09.716Z,75.92
2017-09-15T21:32:38.079Z,77.00
2017-09-15T21:35:06.314Z,77.22
2017-09-15T21:37:34.562Z,77.21
2017-09-15T21:40:02.794Z,76.28
2017-09-15T21:42:31.119Z,76.18
2017-09-15T21:44:59.359Z,76.27
2017-09-15T21:47:28.379Z,75.83
2017-09-15T21:49:56.623Z,76.19
2017-09-15T21:52:25.642Z,76.97
2017-09-15T21:54:53.891Z,77.35
2017-09-15T21:57:22.158Z,77.42
2017-09-15T21:59:50.399Z,77.63
2017-09-15T22:02:18.646Z,77.81
2017-09-15T22:04:46.902Z,78.52
2017-09-15T22:07:15.908Z,79.57
2017-09-15T22:09:44.158Z,79.51
2017-09-15T22:12:12.401Z,78.92
2017-09-15T22:14:40.657Z,78.57
2017-09-15T22:17:08.906Z,75.94
2017-09-15T22:19:37.920Z,75.67
2017-09-15T22:22:11.768Z,76.33
2017-09-15T22:24:40.023Z,77.35
2017-09-15T22:27:08.264Z,77.52
2017-09-15T22:29:36.506Z,77.43
2017-09-15T22:32:04.751Z,77.51
2017-09-15T22:34:33.005Z,78.10
2017-09-15T22:37:01.238Z,78.74
2017-09-15T22:39:30.257Z,79.30
2017-09-15T22:41:58.604Z,78.72
2017-09-15T22:44:27.647Z,78.81
2017-09-15T22:46:55.912Z,78.83
2017-09-15T22:49:24.155Z,78.88
2017-09-15T22:51:53.240Z,79.08
2017-09-15T22:54:32.251Z,79.43
2017-09-15T22:57:00.534Z,79.33
2017-09-15T22:59:28.807Z,79.52
2017-09-15T23:01:57.216Z,80.01
2017-09-15T23:04:26.365Z,80.58
2017-09-15T23:06:55.631Z,81.14
2017-09-15T23:09:23.963Z,81.10
2017-09-15T23:11:52.365Z,81.68
2017-09-15T23:14:21.426Z,80.23
2017-09-15T23:16:49.713Z,80.68
2017-09-15T23:19:17.974Z,80.01
2017-09-15T23:21:46.246Z,78.31
2017-09-15T23:24:14.520Z,77.88
2017-09-15T23:26:42.815Z,76.85
2017-09-15T23:29:11.076Z,77.22
2017-09-15T23:31:39.377Z,76.04
2017-09-15T23:34:07.639Z,77.68
2017-09-15T23:36:35.938Z,76.67
2017-09-15T23:39:05.011Z,75.60
2017-09-15T23:41:33.302Z,75.17
2017-09-15T23:44:02.327Z,74.46
2017-09-15T23:46:30.814Z,73.78
2017-09-15T23:48:59.116Z,73.96
2017-09-15T23:51:27.446Z,73.56
2017-09-15T23:53:55.701Z,73.01
2017-09-15T23:56:23.991Z,73.02
2017-09-15T23:58:53.043Z,74.51
